sensor_id;sensor_type;location;lat;lon;timestamp;P1;durP1;ratioP1;P2;durP2;ratioP2
691;SDS011;328;50.086;8.576;2022-07-06T00:00:24;5.10;;;4.60;;
691;SDS011;328;50.086;8.576;2022-07-06T00:02:52;5.63;;;5.27;;
691;SDS011;328;50.086;8.576;2022-07-06T00:05:19;4.73;;;4.07;;
691;SDS011;328;50.086;8.576;2022-07-06T00:07:47;4.70;;;4.40;;
691;SDS011;328;50.086;8.576;2022-07-06T00:10:14;4.50;;;4.10;;
691;SDS011;328;50.086;8.576;2022-07-06T00:12:42;6.37;;;6.07;;
691;SDS011;328;50.086;8.576;2022-07-06T00:15:11;7.07;;;6.57;;
691;SDS011;328;50.086;8.576;2022-07-06T00:17:38;8.00;;;7.53;;
691;SDS011;328;50.086;8.576;2022-07-06T00:20:06;5.93;;;5.53;;
691;SDS011;328;50.086;8.576;2022-07-06T00:22:34;4.60;;;4.23;;
691;SDS011;328;50.086;8.576;2022-07-06T00:25:02;6.97;;;6.40;;
691;SDS011;328;50.086;8.576;2022-07-06T00:27:30;6.63;;;6.13;;
691;SDS011;328;50.086;8.576;2022-07-06T00:29:57;5.63;;;5.23;;
691;SDS011;328;50.086;8.576;2022-07-06T00:32:26;5.60;;;5.20;;
691;SDS011;328;50.086;8.576;2022-07-06T00:34:53;6.30;;;5.90;;
691;SDS011;328;50.086;8.576;2022-07-06T00:37:21;5.13;;;4.83;;
691;SDS011;328;50.086;8.576;2022-07-06T00:39:49;7.10;;;6.70;;
691;SDS011;328;50.086;8.576;2022-07-06T00:42:16;7.70;;;7.20;;
691;SDS011;328;50.086;8.576;2022-07-06T00:44:43;9.33;;;8.83;;
691;SDS011;328;50.086;8.576;2022-07-06T00:47:11;9.33;;;8.73;;
691;SDS011;328;50.086;8.576;2022-07-06T00:49:40;10.73;;;9.97;;
691;SDS011;328;50.086;8.576;2022-07-06T00:52:39;9.43;;;9.03;;
691;SDS011;328;50.086;8.576;2022-07-06T00:55:07;9.87;;;9.27;;
691;SDS011;328;50.086;8.576;2022-07-06T00:57:35;7.23;;;6.73;;
691;SDS011;328;50.086;8.576;2022-07-06T01:00:03;8.47;;;7.80;;
691;SDS011;328;50.086;8.576;2022-07-06T01:02:32;9.63;;;8.93;;
691;SDS011;328;50.086;8.576;2022-07-06T01:05:02;9.40;;;8.90;;
691;SDS011;328;50.086;8.576;2022-07-06T01:07:31;9.60;;;9.03;;
691;SDS011;328;50.086;8.576;2022-07-06T01:09:58;10.97;;;10.50;;
691;SDS011;328;50.086;8.576;2022-07-06T01:12:26;10.33;;;9.83;;
691;SDS011;328;50.086;8.576;2022-07-06T01:14:54;10.20;;;9.23;;
691;SDS011;328;50.086;8.576;2022-07-06T01:17:22;12.67;;;11.93;;
691;SDS011;328;50.086;8.576;2022-07-06T01:19:50;10.53;;;9.90;;
691;SDS011;328;50.086;8.576;2022-07-06T01:22:19;10.93;;;10.33;;
691;SDS011;328;50.086;8.576;2022-07-06T01:24:46;10.67;;;9.97;;
691;SDS011;328;50.086;8.576;2022-07-06T01:27:14;9.97;;;9.33;;
691;SDS011;328;50.086;8.576;2022-07-06T01:29:42;10.67;;;9.93;;
691;SDS011;328;50.086;8.576;2022-07-06T01:32:09;11.87;;;11.27;;
691;SDS011;328;50.086;8.576;2022-07-06T01:34:37;9.83;;;9.40;;
691;SDS011;328;50.086;8.576;2022-07-06T01:37:04;10.30;;;9.63;;
691;SDS011;328;50.086;8.576;2022-07-06T01:39:33;10.03;;;9.60;;
691;SDS011;328;50.086;8.576;2022-07-06T01:42:00;8.60;;;8.10;;
691;SDS011;328;50.086;8.576;2022-07-06T01:44:29;9.03;;;8.40;;
691;SDS011;328;50.086;8.576;2022-07-06T01:46:56;14.20;;;13.40;;
691;SDS011;328;50.086;8.576;2022-07-06T01:49:24;11.73;;;11.10;;
691;SDS011;328;50.086;8.576;2022-07-06T01:51:51;8.93;;;8.53;;
691;SDS011;328;50.086;8.576;2022-07-06T01:54:18;12.20;;;11.60;;
691;SDS011;328;50.086;8.576;2022-07-06T01:56:47;12.03;;;11.33;;
691;SDS011;328;50.086;8.576;2022-07-06T01:59:15;9.70;;;9.13;;
691;SDS011;328;50.086;8.576;2022-07-06T02:01:42;9.20;;;8.70;;
691;SDS011;328;50.086;8.576;2022-07-06T02:04:10;10.97;;;10.33;;
691;SDS011;328;50.086;8.576;2022-07-06T02:06:37;13.40;;;12.63;;
691;SDS011;328;50.086;8.576;2022-07-06T02:09:05;9.73;;;9.00;;
691;SDS011;328;50.086;8.576;2022-07-06T02:11:32;10.37;;;9.83;;
691;SDS011;328;50.086;8.576;2022-07-06T02:14:01;14.90;;;14.20;;
691;SDS011;328;50.086;8.576;2022-07-06T02:16:29;10.20;;;9.63;;
691;SDS011;328;50.086;8.576;2022-07-06T02:18:56;15.70;;;14.57;;
691;SDS011;328;50.086;8.576;2022-07-06T02:21:24;10.20;;;9.60;;
691;SDS011;328;50.086;8.576;2022-07-06T02:23:51;11.80;;;10.90;;
691;SDS011;328;50.086;8.576;2022-07-06T02:26:19;10.40;;;9.77;;
691;SDS011;328;50.086;8.576;2022-07-06T02:28:46;11.53;;;10.90;;
691;SDS011;328;50.086;8.576;2022-07-06T02:31:15;11.43;;;10.57;;
691;SDS011;328;50.086;8.576;2022-07-06T02:33:43;10.87;;;10.23;;
691;SDS011;328;50.086;8.576;2022-07-06T02:36:10;12.57;;;11.83;;
691;SDS011;328;50.086;8.576;2022-07-06T02:38:38;10.57;;;9.93;;
691;SDS011;328;50.086;8.576;2022-07-06T02:41:06;9.07;;;8.63;;
691;SDS011;328;50.086;8.576;2022-07-06T02:43:33;11.40;;;10.73;;
691;SDS011;328;50.086;8.576;2022-07-06T02:46:01;12.10;;;11.47;;
691;SDS011;328;50.086;8.576;2022-07-06T02:48:30;9.57;;;9.07;;
691;SDS011;328;50.086;8.576;2022-07-06T02:50:57;8.97;;;8.57;;
691;SDS011;328;50.086;8.576;2022-07-06T02:53:25;10.27;;;9.63;;
691;SDS011;328;50.086;8.576;2022-07-06T02:55:53;8.70;;;8.30;;
691;SDS011;328;50.086;8.576;2022-07-06T02:58:20;11.60;;;10.93;;
691;SDS011;328;50.086;8.576;2022-07-06T03:00:48;7.73;;;7.33;;
691;SDS011;328;50.086;8.576;2022-07-06T03:03:16;11.93;;;11.30;;
691;SDS011;328;50.086;8.576;2022-07-06T03:05:45;9.13;;;7.63;;
691;SDS011;328;50.086;8.576;2022-07-06T03:08:14;12.60;;;11.93;;
691;SDS011;328;50.086;8.576;2022-07-06T03:10:42;10.43;;;9.73;;
691;SDS011;328;50.086;8.576;2022-07-06T03:13:09;11.37;;;10.83;;
691;SDS011;328;50.086;8.576;2022-07-06T03:15:37;12.70;;;11.80;;
691;SDS011;328;50.086;8.576;2022-07-06T03:18:04;8.67;;;8.13;;
691;SDS011;328;50.086;8.576;2022-07-06T03:20:32;11.40;;;10.83;;
691;SDS011;328;50.086;8.576;2022-07-06T03:23:01;9.40;;;8.80;;
691;SDS011;328;50.086;8.576;2022-07-06T03:25:28;10.27;;;9.67;;
691;SDS011;328;50.086;8.576;2022-07-06T03:27:56;11.33;;;10.50;;
691;SDS011;328;50.086;8.576;2022-07-06T03:30:23;16.13;;;15.10;;
691;SDS011;328;50.086;8.576;2022-07-06T03:32:51;8.03;;;7.47;;
691;SDS011;328;50.086;8.576;2022-07-06T03:35:18;9.20;;;8.70;;
691;SDS011;328;50.086;8.576;2022-07-06T03:37:46;15.60;;;14.63;;
691;SDS011;328;50.086;8.576;2022-07-06T03:40:15;17.00;;;16.00;;
691;SDS011;328;50.086;8.576;2022-07-06T03:42:42;13.90;;;13.20;;
691;SDS011;328;50.086;8.576;2022-07-06T03:45:10;10.37;;;9.83;;
691;SDS011;328;50.086;8.576;2022-07-06T03:47:37;15.50;;;14.70;;
691;SDS011;328;50.086;8.576;2022-07-06T03:50:05;12.43;;;11.43;;
691;SDS011;328;50.086;8.576;2022-07-06T03:52:34;10.97;;;10.20;;
691;SDS011;328;50.086;8.576;2022-07-06T03:55:06;11.83;;;11.23;;
691;SDS011;328;50.086;8.576;2022-07-06T03:57:37;14.17;;;13.30;;
691;SDS011;328;50.086;8.576;2022-07-06T04:00:07;13.27;;;12.60;;
691;SDS011;328;50.086;8.576;2022-07-06T04:02:35;16.77;;;15.50;;
691;SDS011;328;50.086;8.576;2022-07-06T04:05:03;13.60;;;12.90;;
691;SDS011;328;50.086;8.576;2022-07-06T04:07:31;11.97;;;11.13;;
691;SDS011;328;50.086;8.576;2022-07-06T04:09:59;12.13;;;11.30;;
691;SDS011;328;50.086;8.576;2022-07-06T04:12:26;11.63;;;10.87;;
691;SDS011;328;50.086;8.576;2022-07-06T04:14:57;10.70;;;9.83;;
691;SDS011;328;50.086;8.576;2022-07-06T04:17:24;10.40;;;9.80;;
691;SDS011;328;50.086;8.576;2022-07-06T04:20:10;15.33;;;14.57;;
691;SDS011;328;50.086;8.576;2022-07-06T04:22:37;13.53;;;12.70;;
691;SDS011;328;50.086;8.576;2022-07-06T04:25:05;12.40;;;11.63;;
691;SDS011;328;50.086;8.576;2022-07-06T04:27:33;16.03;;;15.17;;
691;SDS011;328;50.086;8.576;2022-07-06T04:30:02;12.50;;;11.57;;
691;SDS011;328;50.086;8.576;2022-07-06T04:32:30;15.30;;;14.40;;
691;SDS011;328;50.086;8.576;2022-07-06T04:34:58;10.67;;;10.03;;
691;SDS011;328;50.086;8.576;2022-07-06T04:37:26;12.03;;;11.40;;
691;SDS011;328;50.086;8.576;2022-07-06T04:39:53;12.93;;;12.10;;
691;SDS011;328;50.086;8.576;2022-07-06T04:42:21;21.83;;;20.70;;
691;SDS011;328;50.086;8.576;2022-07-06T04:44:48;12.07;;;11.43;;
691;SDS011;328;50.086;8.576;2022-07-06T04:47:19;13.90;;;13.10;;
691;SDS011;328;50.086;8.576;2022-07-06T04:49:46;10.90;;;10.30;;
691;SDS011;328;50.086;8.576;2022-07-06T04:52:14;12.03;;;11.23;;
691;SDS011;328;50.086;8.576;2022-07-06T04:54:41;11.13;;;10.47;;
691;SDS011;328;50.086;8.576;2022-07-06T04:57:09;13.83;;;13.13;;
691;SDS011;328;50.086;8.576;2022-07-06T04:59:38;15.50;;;14.77;;
691;SDS011;328;50.086;8.576;2022-07-06T05:02:05;13.70;;;13.03;;
691;SDS011;328;50.086;8.576;2022-07-06T05:04:34;17.77;;;16.70;;
691;SDS011;328;50.086;8.576;2022-07-06T05:07:02;15.43;;;14.63;;
691;SDS011;328;50.086;8.576;2022-07-06T05:09:30;16.77;;;15.63;;
691;SDS011;328;50.086;8.576;2022-07-06T05:11:57;13.10;;;12.50;;
691;SDS011;328;50.086;8.576;2022-07-06T05:14:25;13.13;;;12.33;;
691;SDS011;328;50.086;8.576;2022-07-06T05:16:52;17.93;;;16.80;;
691;SDS011;328;50.086;8.576;2022-07-06T05:19:20;14.23;;;13.47;;
691;SDS011;328;50.086;8.576;2022-07-06T05:21:49;11.33;;;10.70;;
691;SDS011;328;50.086;8.576;2022-07-06T05:24:16;12.60;;;11.37;;
691;SDS011;328;50.086;8.576;2022-07-06T05:26:45;14.27;;;13.40;;
691;SDS011;328;50.086;8.576;2022-07-06T05:29:12;12.27;;;11.57;;
691;SDS011;328;50.086;8.576;2022-07-06T05:31:40;14.67;;;13.90;;
691;SDS011;328;50.086;8.576;2022-07-06T05:34:07;16.10;;;15.23;;
691;SDS011;328;50.086;8.576;2022-07-06T05:36:35;9.57;;;8.97;;
691;SDS011;328;50.086;8.576;2022-07-06T05:39:04;11.50;;;10.90;;
691;SDS011;328;50.086;8.576;2022-07-06T05:41:31;11.93;;;11.20;;
691;SDS011;328;50.086;8.576;2022-07-06T05:43:59;11.30;;;10.80;;
691;SDS011;328;50.086;8.576;2022-07-06T05:46:26;11.80;;;10.97;;
691;SDS011;328;50.086;8.576;2022-07-06T05:48:54;15.17;;;14.23;;
691;SDS011;328;50.086;8.576;2022-07-06T05:51:39;15.67;;;14.83;;
691;SDS011;328;50.086;8.576;2022-07-06T05:54:08;13.73;;;12.90;;
691;SDS011;328;50.086;8.576;2022-07-06T05:56:35;10.97;;;10.20;;
691;SDS011;328;50.086;8.576;2022-07-06T05:59:03;12.23;;;11.40;;
691;SDS011;328;50.086;8.576;2022-07-06T06:01:30;13.27;;;12.47;;
691;SDS011;328;50.086;8.576;2022-07-06T06:03:58;11.23;;;10.60;;
691;SDS011;328;50.086;8.576;2022-07-06T06:06:26;11.87;;;11.00;;
691;SDS011;328;50.086;8.576;2022-07-06T06:08:53;10.50;;;10.00;;
691;SDS011;328;50.086;8.576;2022-07-06T06:11:22;11.40;;;10.60;;
691;SDS011;328;50.086;8.576;2022-07-06T06:13:49;11.90;;;11.30;;
691;SDS011;328;50.086;8.576;2022-07-06T06:16:17;11.33;;;10.73;;
691;SDS011;328;50.086;8.576;2022-07-06T06:18:44;10.40;;;9.80;;
691;SDS011;328;50.086;8.576;2022-07-06T06:21:12;16.30;;;15.37;;
691;SDS011;328;50.086;8.576;2022-07-06T06:23:40;16.13;;;15.17;;
691;SDS011;328;50.086;8.576;2022-07-06T06:26:07;14.73;;;13.97;;
691;SDS011;328;50.086;8.576;2022-07-06T06:28:36;13.33;;;12.63;;
691;SDS011;328;50.086;8.576;2022-07-06T06:31:03;11.07;;;10.40;;
691;SDS011;328;50.086;8.576;2022-07-06T06:33:31;12.07;;;11.23;;
691;SDS011;328;50.086;8.576;2022-07-06T06:35:59;11.63;;;11.00;;
691;SDS011;328;50.086;8.576;2022-07-06T06:38:26;13.63;;;12.63;;
691;SDS011;328;50.086;8.576;2022-07-06T06:40:55;10.33;;;9.70;;
691;SDS011;328;50.086;8.576;2022-07-06T06:43:23;12.00;;;11.20;;
691;SDS011;328;50.086;8.576;2022-07-06T06:45:52;11.87;;;11.00;;
691;SDS011;328;50.086;8.576;2022-07-06T06:48:20;11.27;;;10.67;;
691;SDS011;328;50.086;8.576;2022-07-06T06:50:47;12.07;;;11.23;;
691;SDS011;328;50.086;8.576;2022-07-06T06:53:15;12.83;;;11.83;;
691;SDS011;328;50.086;8.576;2022-07-06T06:55:42;11.83;;;11.20;;
691;SDS011;328;50.086;8.576;2022-07-06T06:58:10;8.23;;;7.70;;
691;SDS011;328;50.086;8.576;2022-07-06T07:00:37;8.93;;;8.13;;
691;SDS011;328;50.086;8.576;2022-07-06T07:03:06;12.10;;;11.33;;
691;SDS011;328;50.086;8.576;2022-07-06T07:05:34;12.63;;;11.90;;
691;SDS011;328;50.086;8.576;2022-07-06T07:08:01;8.93;;;8.10;;
691;SDS011;328;50.086;8.576;2022-07-06T07:10:30;11.73;;;11.13;;
691;SDS011;328;50.086;8.576;2022-07-06T07:12:58;11.43;;;10.73;;
691;SDS011;328;50.086;8.576;2022-07-06T07:15:26;15.80;;;14.77;;
691;SDS011;328;50.086;8.576;2022-07-06T07:17:53;12.30;;;11.53;;
691;SDS011;328;50.086;8.576;2022-07-06T07:20:22;8.43;;;7.90;;
691;SDS011;328;50.086;8.576;2022-07-06T07:22:51;10.27;;;9.60;;
691;SDS011;328;50.086;8.576;2022-07-06T07:25:18;11.00;;;10.40;;
691;SDS011;328;50.086;8.576;2022-07-06T07:27:46;9.20;;;8.60;;
691;SDS011;328;50.086;8.576;2022-07-06T07:30:13;9.87;;;9.23;;
691;SDS011;328;50.086;8.576;2022-07-06T07:32:41;9.93;;;9.20;;
691;SDS011;328;50.086;8.576;2022-07-06T07:35:09;9.23;;;8.63;;
691;SDS011;328;50.086;8.576;2022-07-06T07:37:38;12.57;;;11.87;;
691;SDS011;328;50.086;8.576;2022-07-06T07:40:06;12.67;;;11.70;;
691;SDS011;328;50.086;8.576;2022-07-06T07:42:34;13.40;;;12.23;;
691;SDS011;328;50.086;8.576;2022-07-06T07:45:01;9.17;;;8.53;;
691;SDS011;328;50.086;8.576;2022-07-06T07:47:29;9.67;;;8.93;;
691;SDS011;328;50.086;8.576;2022-07-06T07:49:56;9.30;;;8.70;;
691;SDS011;328;50.086;8.576;2022-07-06T07:52:24;13.17;;;12.43;;
691;SDS011;328;50.086;8.576;2022-07-06T07:54:53;10.27;;;9.57;;
691;SDS011;328;50.086;8.576;2022-07-06T07:57:40;10.70;;;10.00;;
691;SDS011;328;50.086;8.576;2022-07-06T08:00:08;10.80;;;10.03;;
691;SDS011;328;50.086;8.576;2022-07-06T08:02:37;13.87;;;13.07;;
691;SDS011;328;50.086;8.576;2022-07-06T08:05:05;10.20;;;9.63;;
691;SDS011;328;50.086;8.576;2022-07-06T08:07:33;11.43;;;10.73;;
691;SDS011;328;50.086;8.576;2022-07-06T08:10:02;9.57;;;9.10;;
691;SDS011;328;50.086;8.576;2022-07-06T08:12:30;9.70;;;9.20;;
691;SDS011;328;50.086;8.576;2022-07-06T08:14:57;13.27;;;12.37;;
691;SDS011;328;50.086;8.576;2022-07-06T08:17:25;9.03;;;8.43;;
691;SDS011;328;50.086;8.576;2022-07-06T08:19:52;9.57;;;8.97;;
691;SDS011;328;50.086;8.576;2022-07-06T08:22:20;12.20;;;11.63;;
691;SDS011;328;50.086;8.576;2022-07-06T08:24:47;7.77;;;7.13;;
691;SDS011;328;50.086;8.576;2022-07-06T08:27:16;7.80;;;7.30;;
691;SDS011;328;50.086;8.576;2022-07-06T08:29:44;10.27;;;9.60;;
691;SDS011;328;50.086;8.576;2022-07-06T08:32:11;7.90;;;7.50;;
691;SDS011;328;50.086;8.576;2022-07-06T08:34:59;9.43;;;8.93;;
691;SDS011;328;50.086;8.576;2022-07-06T08:37:26;9.33;;;8.73;;
691;SDS011;328;50.086;8.576;2022-07-06T08:39:54;9.00;;;8.50;;
691;SDS011;328;50.086;8.576;2022-07-06T08:42:22;13.83;;;12.93;;
691;SDS011;328;50.086;8.576;2022-07-06T08:44:51;7.63;;;7.20;;
691;SDS011;328;50.086;8.576;2022-07-06T08:47:20;7.43;;;6.63;;
691;SDS011;328;50.086;8.576;2022-07-06T08:49:49;8.43;;;7.90;;
691;SDS011;328;50.086;8.576;2022-07-06T08:52:17;8.27;;;7.63;;
691;SDS011;328;50.086;8.576;2022-07-06T08:54:44;5.43;;;5.03;;
691;SDS011;328;50.086;8.576;2022-07-06T08:57:12;6.37;;;6.00;;
691;SDS011;328;50.086;8.576;2022-07-06T08:59:41;7.40;;;7.07;;
691;SDS011;328;50.086;8.576;2022-07-06T09:02:09;8.30;;;7.63;;
691;SDS011;328;50.086;8.576;2022-07-06T09:04:37;6.17;;;5.77;;
691;SDS011;328;50.086;8.576;2022-07-06T09:07:06;8.40;;;7.90;;
691;SDS011;328;50.086;8.576;2022-07-06T09:09:34;7.60;;;7.20;;
691;SDS011;328;50.086;8.576;2022-07-06T09:12:03;6.70;;;6.20;;
691;SDS011;328;50.086;8.576;2022-07-06T09:14:31;5.33;;;5.03;;
691;SDS011;328;50.086;8.576;2022-07-06T09:17:03;7.70;;;7.20;;
691;SDS011;328;50.086;8.576;2022-07-06T09:19:36;6.27;;;4.20;;
691;SDS011;328;50.086;8.576;2022-07-06T09:22:04;4.37;;;4.03;;
691;SDS011;328;50.086;8.576;2022-07-06T09:24:32;5.03;;;4.63;;
691;SDS011;328;50.086;8.576;2022-07-06T09:26:59;3.17;;;2.97;;
691;SDS011;328;50.086;8.576;2022-07-06T09:29:27;3.90;;;3.57;;
691;SDS011;328;50.086;8.576;2022-07-06T09:31:56;4.60;;;3.93;;
691;SDS011;328;50.086;8.576;2022-07-06T09:34:26;6.13;;;5.63;;
691;SDS011;328;50.086;8.576;2022-07-06T09:37:07;4.63;;;4.33;;
691;SDS011;328;50.086;8.576;2022-07-06T09:39:35;5.53;;;4.83;;
691;SDS011;328;50.086;8.576;2022-07-06T09:42:03;3.33;;;3.10;;
691;SDS011;328;50.086;8.576;2022-07-06T09:44:33;3.00;;;2.80;;
691;SDS011;328;50.086;8.576;2022-07-06T09:47:03;4.83;;;4.43;;
691;SDS011;328;50.086;8.576;2022-07-06T09:49:34;6.03;;;3.50;;
691;SDS011;328;50.086;8.576;2022-07-06T09:52:02;4.50;;;4.10;;
691;SDS011;328;50.086;8.576;2022-07-06T09:54:32;3.70;;;3.50;;
691;SDS011;328;50.086;8.576;2022-07-06T09:57:00;2.43;;;2.23;;
691;SDS011;328;50.086;8.576;2022-07-06T09:59:34;2.40;;;2.20;;
691;SDS011;328;50.086;8.576;2022-07-06T10:02:03;4.80;;;4.50;;
691;SDS011;328;50.086;8.576;2022-07-06T10:04:32;3.83;;;3.63;;
691;SDS011;328;50.086;8.576;2022-07-06T10:07:01;2.53;;;2.33;;
691;SDS011;328;50.086;8.576;2022-07-06T10:09:29;2.40;;;2.20;;
691;SDS011;328;50.086;8.576;2022-07-06T10:11:57;4.80;;;4.27;;
691;SDS011;328;50.086;8.576;2022-07-06T10:14:27;2.27;;;2.17;;
691;SDS011;328;50.086;8.576;2022-07-06T10:16:56;3.70;;;2.43;;
691;SDS011;328;50.086;8.576;2022-07-06T10:19:26;2.40;;;2.20;;
691;SDS011;328;50.086;8.576;2022-07-06T10:21:57;1.63;;;1.53;;
691;SDS011;328;50.086;8.576;2022-07-06T10:24:27;1.70;;;1.40;;
691;SDS011;328;50.086;8.576;2022-07-06T10:26:55;2.13;;;1.93;;
691;SDS011;328;50.086;8.576;2022-07-06T10:29:23;2.23;;;1.80;;
691;SDS011;328;50.086;8.576;2022-07-06T10:31:51;1.97;;;1.87;;
691;SDS011;328;50.086;8.576;2022-07-06T10:34:20;2.93;;;2.73;;
691;SDS011;328;50.086;8.576;2022-07-06T10:36:49;1.93;;;1.83;;
691;SDS011;328;50.086;8.576;2022-07-06T10:39:31;2.90;;;2.27;;
691;SDS011;328;50.086;8.576;2022-07-06T10:45:08;2.50;;;2.30;;
691;SDS011;328;50.086;8.576;2022-07-06T10:47:37;3.60;;;3.33;;
691;SDS011;328;50.086;8.576;2022-07-06T10:50:05;1.87;;;1.57;;
691;SDS011;328;50.086;8.576;2022-07-06T10:52:48;1.83;;;1.73;;
691;SDS011;328;50.086;8.576;2022-07-06T10:58:07;2.47;;;2.03;;
691;SDS011;328;50.086;8.576;2022-07-06T11:00:50;2.53;;;2.33;;
691;SDS011;328;50.086;8.576;2022-07-06T11:03:34;1.87;;;1.50;;
691;SDS011;328;50.086;8.576;2022-07-06T11:06:07;2.80;;;1.40;;
691;SDS011;328;50.086;8.576;2022-07-06T11:11:38;2.60;;;2.17;;
691;SDS011;328;50.086;8.576;2022-07-06T11:14:12;2.37;;;1.30;;
691;SDS011;328;50.086;8.576;2022-07-06T11:17:00;4.83;;;1.30;;
691;SDS011;328;50.086;8.576;2022-07-06T11:19:28;1.83;;;1.37;;
691;SDS011;328;50.086;8.576;2022-07-06T11:21:58;2.57;;;1.57;;
691;SDS011;328;50.086;8.576;2022-07-06T11:24:33;2.23;;;1.60;;
691;SDS011;328;50.086;8.576;2022-07-06T11:27:03;1.40;;;1.30;;
691;SDS011;328;50.086;8.576;2022-07-06T11:29:33;2.37;;;1.70;;
691;SDS011;328;50.086;8.576;2022-07-06T11:32:03;2.33;;;1.60;;
691;SDS011;328;50.086;8.576;2022-07-06T11:34:32;1.83;;;1.37;;
691;SDS011;328;50.086;8.576;2022-07-06T11:37:01;1.53;;;1.30;;
691;SDS011;328;50.086;8.576;2022-07-06T11:39:30;3.73;;;1.30;;
691;SDS011;328;50.086;8.576;2022-07-06T11:41:59;1.50;;;1.40;;
691;SDS011;328;50.086;8.576;2022-07-06T11:44:28;1.60;;;1.10;;
691;SDS011;328;50.086;8.576;2022-07-06T11:46:56;3.23;;;1.33;;
691;SDS011;328;50.086;8.576;2022-07-06T11:49:27;2.07;;;1.77;;
691;SDS011;328;50.086;8.576;2022-07-06T11:51:54;2.30;;;1.27;;
691;SDS011;328;50.086;8.576;2022-07-06T11:54:22;1.60;;;1.30;;
691;SDS011;328;50.086;8.576;2022-07-06T11:56:51;2.27;;;1.43;;
691;SDS011;328;50.086;8.576;2022-07-06T11:59:20;1.83;;;1.37;;
691;SDS011;328;50.086;8.576;2022-07-06T12:01:57;1.90;;;1.70;;
691;SDS011;328;50.086;8.576;2022-07-06T12:04:25;1.90;;;1.13;;
691;SDS011;328;50.086;8.576;2022-07-06T12:06:53;1.10;;;1.00;;
691;SDS011;328;50.086;8.576;2022-07-06T12:09:21;3.73;;;1.60;;
691;SDS011;328;50.086;8.576;2022-07-06T12:11:48;1.90;;;1.27;;
691;SDS011;328;50.086;8.576;2022-07-06T12:14:16;1.47;;;1.10;;
691;SDS011;328;50.086;8.576;2022-07-06T12:16:45;1.30;;;1.17;;
691;SDS011;328;50.086;8.576;2022-07-06T12:19:15;1.60;;;1.10;;
691;SDS011;328;50.086;8.576;2022-07-06T12:21:44;1.13;;;1.00;;
691;SDS011;328;50.086;8.576;2022-07-06T12:24:17;1.57;;;1.20;;
691;SDS011;328;50.086;8.576;2022-07-06T12:26:45;5.83;;;1.60;;
691;SDS011;328;50.086;8.576;2022-07-06T12:29:13;2.00;;;1.20;;
691;SDS011;328;50.086;8.576;2022-07-06T12:31:41;1.87;;;1.10;;
691;SDS011;328;50.086;8.576;2022-07-06T12:34:13;1.97;;;1.53;;
691;SDS011;328;50.086;8.576;2022-07-06T12:36:44;1.50;;;0.93;;
691;SDS011;328;50.086;8.576;2022-07-06T12:39:12;1.47;;;1.30;;
691;SDS011;328;50.086;8.576;2022-07-06T12:41:44;2.40;;;2.20;;
691;SDS011;328;50.086;8.576;2022-07-06T12:44:13;1.27;;;1.07;;
691;SDS011;328;50.086;8.576;2022-07-06T12:46:41;1.10;;;1.00;;
691;SDS011;328;50.086;8.576;2022-07-06T12:49:13;1.60;;;0.97;;
691;SDS011;328;50.086;8.576;2022-07-06T12:51:50;1.60;;;1.00;;
691;SDS011;328;50.086;8.576;2022-07-06T12:54:26;2.27;;;1.17;;
691;SDS011;328;50.086;8.576;2022-07-06T12:56:58;2.07;;;1.23;;
691;SDS011;328;50.086;8.576;2022-07-06T12:59:34;1.00;;;0.90;;
691;SDS011;328;50.086;8.576;2022-07-06T13:02:03;1.57;;;1.10;;
691;SDS011;328;50.086;8.576;2022-07-06T13:04:33;1.30;;;0.97;;
691;SDS011;328;50.086;8.576;2022-07-06T13:07:01;0.97;;;0.87;;
691;SDS011;328;50.086;8.576;2022-07-06T13:09:33;2.20;;;2.00;;
691;SDS011;328;50.086;8.576;2022-07-06T13:12:01;3.83;;;1.10;;
691;SDS011;328;50.086;8.576;2022-07-06T13:14:28;1.53;;;1.13;;
691;SDS011;328;50.086;8.576;2022-07-06T13:16:56;0.90;;;0.70;;
691;SDS011;328;50.086;8.576;2022-07-06T13:19:23;1.37;;;1.07;;
691;SDS011;328;50.086;8.576;2022-07-06T13:21:52;1.70;;;1.00;;
691;SDS011;328;50.086;8.576;2022-07-06T13:24:20;1.27;;;1.10;;
691;SDS011;328;50.086;8.576;2022-07-06T13:26:47;1.87;;;0.90;;
691;SDS011;328;50.086;8.576;2022-07-06T13:29:15;1.07;;;0.97;;
691;SDS011;328;50.086;8.576;2022-07-06T13:31:42;1.37;;;0.80;;
691;SDS011;328;50.086;8.576;2022-07-06T13:34:10;1.10;;;0.80;;
691;SDS011;328;50.086;8.576;2022-07-06T13:36:39;2.13;;;0.93;;
691;SDS011;328;50.086;8.576;2022-07-06T13:39:08;1.50;;;1.10;;
691;SDS011;328;50.086;8.576;2022-07-06T13:41:37;3.50;;;1.30;;
691;SDS011;328;50.086;8.576;2022-07-06T13:44:05;1.53;;;1.10;;
691;SDS011;328;50.086;8.576;2022-07-06T13:46:40;1.40;;;0.93;;
691;SDS011;328;50.086;8.576;2022-07-06T13:49:08;4.30;;;3.90;;
691;SDS011;328;50.086;8.576;2022-07-06T13:51:36;3.20;;;1.00;;
691;SDS011;328;50.086;8.576;2022-07-06T13:54:04;1.47;;;1.00;;
691;SDS011;328;50.086;8.576;2022-07-06T13:56:33;1.53;;;1.23;;
691;SDS011;328;50.086;8.576;2022-07-06T13:59:00;2.23;;;1.50;;
691;SDS011;328;50.086;8.576;2022-07-06T14:01:28;3.90;;;1.50;;
691;SDS011;328;50.086;8.576;2022-07-06T14:03:56;1.53;;;1.17;;
691;SDS011;328;50.086;8.576;2022-07-06T14:06:24;1.40;;;1.30;;
691;SDS011;328;50.086;8.576;2022-07-06T14:08:51;1.17;;;0.87;;
691;SDS011;328;50.086;8.576;2022-07-06T14:11:19;1.10;;;1.00;;
691;SDS011;328;50.086;8.576;2022-07-06T14:13:48;1.30;;;1.13;;
691;SDS011;328;50.086;8.576;2022-07-06T14:16:15;1.67;;;1.00;;
691;SDS011;328;50.086;8.576;2022-07-06T14:18:43;1.60;;;1.27;;
691;SDS011;328;50.086;8.576;2022-07-06T14:21:10;1.13;;;1.00;;
691;SDS011;328;50.086;8.576;2022-07-06T14:23:38;1.20;;;1.00;;
691;SDS011;328;50.086;8.576;2022-07-06T14:26:05;1.17;;;1.07;;
691;SDS011;328;50.086;8.576;2022-07-06T14:28:33;1.67;;;1.10;;
691;SDS011;328;50.086;8.576;2022-07-06T14:31:02;1.20;;;1.00;;
691;SDS011;328;50.086;8.576;2022-07-06T14:33:29;1.63;;;1.23;;
691;SDS011;328;50.086;8.576;2022-07-06T14:35:57;2.23;;;1.37;;
691;SDS011;328;50.086;8.576;2022-07-06T14:38:25;1.27;;;1.17;;
691;SDS011;328;50.086;8.576;2022-07-06T14:40:53;1.73;;;1.20;;
691;SDS011;328;50.086;8.576;2022-07-06T14:43:21;2.37;;;1.33;;
691;SDS011;328;50.086;8.576;2022-07-06T14:45:49;1.30;;;1.20;;
691;SDS011;328;50.086;8.576;2022-07-06T14:48:18;2.13;;;1.33;;
691;SDS011;328;50.086;8.576;2022-07-06T14:50:45;2.37;;;1.60;;
691;SDS011;328;50.086;8.576;2022-07-06T14:53:13;3.33;;;1.40;;
691;SDS011;328;50.086;8.576;2022-07-06T14:55:40;4.07;;;1.60;;
691;SDS011;328;50.086;8.576;2022-07-06T14:58:08;1.87;;;1.00;;
691;SDS011;328;50.086;8.576;2022-07-06T15:00:35;3.73;;;1.53;;
691;SDS011;328;50.086;8.576;2022-07-06T15:03:03;1.87;;;1.30;;
691;SDS011;328;50.086;8.576;2022-07-06T15:05:32;1.57;;;1.20;;
691;SDS011;328;50.086;8.576;2022-07-06T15:08:00;2.63;;;1.10;;
691;SDS011;328;50.086;8.576;2022-07-06T15:10:30;1.53;;;1.27;;
691;SDS011;328;50.086;8.576;2022-07-06T15:12:57;1.87;;;1.00;;
691;SDS011;328;50.086;8.576;2022-07-06T15:15:25;1.17;;;1.07;;
691;SDS011;328;50.086;8.576;2022-07-06T15:18:12;2.03;;;1.80;;
691;SDS011;328;50.086;8.576;2022-07-06T15:20:41;1.17;;;0.90;;
691;SDS011;328;50.086;8.576;2022-07-06T15:23:09;1.23;;;0.97;;
691;SDS011;328;50.086;8.576;2022-07-06T15:25:37;2.03;;;0.93;;
691;SDS011;328;50.086;8.576;2022-07-06T15:28:04;1.40;;;1.07;;
691;SDS011;328;50.086;8.576;2022-07-06T15:30:32;1.40;;;0.87;;
691;SDS011;328;50.086;8.576;2022-07-06T15:33:00;1.73;;;1.20;;
691;SDS011;328;50.086;8.576;2022-07-06T15:35:27;1.93;;;0.97;;
691;SDS011;328;50.086;8.576;2022-07-06T15:37:56;1.37;;;0.93;;
691;SDS011;328;50.086;8.576;2022-07-06T15:40:24;2.80;;;1.43;;
691;SDS011;328;50.086;8.576;2022-07-06T15:42:52;1.20;;;0.90;;
691;SDS011;328;50.086;8.576;2022-07-06T15:45:21;2.83;;;1.30;;
691;SDS011;328;50.086;8.576;2022-07-06T15:47:52;1.10;;;1.00;;
691;SDS011;328;50.086;8.576;2022-07-06T15:50:20;1.77;;;1.60;;
691;SDS011;328;50.086;8.576;2022-07-06T15:52:48;1.53;;;1.20;;